CYWG

Winnipeg / James Armstrong Richardson International Airport

Winnipeg, Manitoba, Canada
METAR CYWG 170800Z 30007KT 15SM SKC M19/M23 A3052 RMK SLP361
Observed Flight Rules
Nov-17 @ 08:00 UTC (an hour ago) Visual Flight Rules
Wind Visibility Clouds
300° at 7 knots 15 miles
  • Clear skies
Temperatures Readings
Current -19°C / -2°F
Dewpoint -23°C / -9°F
Humidity 71%
Altimeter 30.52" Hg
Pressure 1036.1 hPa
Elevation 239
METAR CYWG 170800Z 30007KT 15SM SKC M19/M23 A3052 RMK SLP361
Observed Flight Rules
Nov-17 @ 08:00 UTC
(an hour ago)
VFR
Wind Visibility
300° at 7 knots 15 miles
Clouds
  • Clear skies
Temperature Dewpoint
-19°C / -2°F -23°C / -9°F
Humidity Altimeter Pressure
71% 30.52" Hg 1036.1 hPa